aviador You're here:

LEVC Decoded Metar

VALENCIA in SPAIN
Report Time2017-12-15 06:00:00
UTC Time2017-12-15 06:28:18
Flight Rules vfr VFR
Wind230° at 09 kt
W.Decomp.*RWY 30: 3.2 kt HW 8.4 kt LCW
W.Rank230° ranks 22
Current wind is above 230° avg. (7.8)
Visibility9999 m
Phenomena:N/A
Clouds:N/A
Expected CloudBase > 2,400 ft AGL from Temp-Dew spread
CeilingNone
Temp15°C (ISA 0)
Dew Point09°C (68% RH)
AAT11.6°C
QNH1008 hPa
Density Alt577 ft
Elevation203 ft
Report Wrong Elevation
Raw Report
LEVC 150600Z 23009KT CAVOK 15/09 Q1008 NOSIG=

Extra information for LEVC:More info

Metar Taf Metar & Taf Last 4 Metars F.Rules Stats Wind Profile Meteogram Temp Stats Airport Information Weather charts Add Link Nearby VenuesMetar ALERT Operation Metar Decoded Social comments

Webcam Valencia